Purysburgh, South Carolina
Current Conditions -  °F | °C
As of 11:53 AM on Sunday 23 Nov 2014 (Local Time) from KSAV Reporting Station
Light Rain Light Rain  
Wind Chill: 66°   Ceiling: 500
Heat Index: 66°   Visibility: 1mi
Dew Point: 63°   Wind: 5mph
Humidity: 90%   Direction: NA
Pressure: 30"   Gusts: NA
Location:  32.2576°N, 81.057°W
Report Text: KSAV 231653Z VRB04KT 1SM -RA BR SCT003 BKN005 OVC008 19/17 A3000 RMK AO2 SFC VIS 1 1/2 SLP158 P0007 T01890172
Loading
Personal Weather Stations






























Interactive Weather Map New forecast layout! Learn more

10-Day Weather Forecast

Advertisements
Track Severe Weather on mobile